createdAt,value
2018-12-12T00:00:42.059Z,89.44
2018-12-12T00:03:12.909Z,86.96
2018-12-12T00:05:43.786Z,87.14
2018-12-12T00:08:12.939Z,86.34
2018-12-12T00:10:41.874Z,85.67
2018-12-12T00:13:10.797Z,86.82
2018-12-12T00:15:40.686Z,88.09
2018-12-12T00:18:09.741Z,88.16
2018-12-12T00:20:38.654Z,87.67
2018-12-12T00:23:07.554Z,87.76
2018-12-12T00:25:37.515Z,87.45
2018-12-12T00:28:07.387Z,87.23
2018-12-12T00:30:36.261Z,88.02
2018-12-12T00:33:05.851Z,87.58
2018-12-12T00:35:34.742Z,87.95
2018-12-12T00:38:03.650Z,88.33
2018-12-12T00:40:32.642Z,87.85
2018-12-12T00:43:01.582Z,87.36
2018-12-12T00:45:30.530Z,87.29
2018-12-12T00:47:59.437Z,87.69
2018-12-12T00:50:28.381Z,85.90
2018-12-12T00:52:57.405Z,85.89
2018-12-12T00:55:26.313Z,86.64
2018-12-12T00:57:55.419Z,86.77
2018-12-12T01:00:24.341Z,85.97
2018-12-12T01:02:53.338Z,85.81
2018-12-12T01:05:22.196Z,86.53
2018-12-12T01:07:51.146Z,86.46
2018-12-12T01:10:20.059Z,85.31
2018-12-12T01:12:49.045Z,85.83
2018-12-12T01:15:18.013Z,85.89
2018-12-12T01:17:47.025Z,86.82
2018-12-12T01:20:15.970Z,86.33
2018-12-12T01:22:44.917Z,85.01
2018-12-12T01:25:13.826Z,83.93
2018-12-12T01:27:42.718Z,85.39
2018-12-12T01:30:12.129Z,84.98
2018-12-12T01:32:41.047Z,83.92
2018-12-12T01:35:09.973Z,84.42
2018-12-12T01:37:38.995Z,85.18
2018-12-12T01:40:07.928Z,85.45
2018-12-12T01:42:36.978Z,84.24
2018-12-12T01:45:05.916Z,83.83
2018-12-12T01:47:35.415Z,83.77
2018-12-12T01:50:06.126Z,84.00
2018-12-12T01:52:35.082Z,84.08
2018-12-12T01:55:03.973Z,84.57
2018-12-12T01:57:32.910Z,84.97
2018-12-12T02:00:01.954Z,84.44
2018-12-12T02:02:31.866Z,84.44
2018-12-12T02:05:00.786Z,83.54
2018-12-12T02:07:29.743Z,84.85
2018-12-12T02:09:58.661Z,84.41
2018-12-12T02:12:27.599Z,85.38
2018-12-12T02:14:56.533Z,85.68
2018-12-12T02:17:25.550Z,85.97
2018-12-12T02:19:54.544Z,86.22
2018-12-12T02:22:23.415Z,84.84
2018-12-12T02:24:52.359Z,84.31
2018-12-12T02:27:21.357Z,85.60
2018-12-12T02:29:50.247Z,84.48
2018-12-12T02:32:19.149Z,84.95
2018-12-12T02:34:48.140Z,84.74
2018-12-12T02:37:18.339Z,85.16
2018-12-12T02:39:47.275Z,85.41
2018-12-12T02:42:16.262Z,85.75
2018-12-12T02:44:45.222Z,85.99
2018-12-12T02:47:14.185Z,84.50
2018-12-12T02:49:43.189Z,85.12
2018-12-12T02:52:12.563Z,85.32
2018-12-12T02:54:41.546Z,84.67
2018-12-12T02:57:10.493Z,83.90
2018-12-12T02:59:39.439Z,84.36
2018-12-12T03:02:08.354Z,84.89
2018-12-12T03:04:38.341Z,85.22
2018-12-12T03:07:07.274Z,85.29
2018-12-12T03:09:36.183Z,84.27
2018-12-12T03:12:05.165Z,84.31
2018-12-12T03:14:34.060Z,84.30
2018-12-12T03:17:03.215Z,85.27
2018-12-12T03:19:32.144Z,85.25
2018-12-12T03:22:01.106Z,84.92
2018-12-12T03:24:30.043Z,85.13
2018-12-12T03:26:59.178Z,85.09
2018-12-12T03:29:28.337Z,85.42
2018-12-12T03:31:57.286Z,84.55
2018-12-12T03:34:26.331Z,85.26
2018-12-12T03:36:55.373Z,83.67
2018-12-12T03:39:24.540Z,82.25
2018-12-12T03:41:53.424Z,82.28
2018-12-12T03:44:22.399Z,82.80
2018-12-12T03:46:51.732Z,84.02
2018-12-12T03:49:20.659Z,83.77
2018-12-12T03:51:49.557Z,84.28
2018-12-12T04:02:02.785Z,82.44
2018-12-12T04:04:31.814Z,82.88
2018-12-12T04:07:00.956Z,83.63
2018-12-12T04:09:29.914Z,83.81
2018-12-12T04:11:58.839Z,83.54
2018-12-12T04:14:28.794Z,83.67
2018-12-12T04:19:31.989Z,83.22
2018-12-12T04:22:02.973Z,84.15
2018-12-12T04:24:32.284Z,82.59
2018-12-12T04:27:01.214Z,82.36
2018-12-12T04:29:30.198Z,81.98
2018-12-12T04:31:59.082Z,82.34
2018-12-12T04:34:27.979Z,82.33
2018-12-12T04:36:56.871Z,80.19
2018-12-12T04:39:25.751Z,81.49
2018-12-12T04:41:54.769Z,82.37
2018-12-12T04:44:23.666Z,83.37
2018-12-12T04:46:52.890Z,84.23
2018-12-12T04:49:21.823Z,84.12
2018-12-12T04:51:50.673Z,83.69
2018-12-12T04:54:19.690Z,83.23
2018-12-12T04:56:48.566Z,82.99
2018-12-12T04:59:17.773Z,84.12
2018-12-12T05:01:46.705Z,84.24
2018-12-12T05:04:15.693Z,85.17
2018-12-12T05:06:44.599Z,84.44
2018-12-12T05:09:13.502Z,85.08
2018-12-12T05:11:42.438Z,86.57
2018-12-12T05:14:11.394Z,86.03
2018-12-12T05:16:40.314Z,86.75
2018-12-12T05:19:09.277Z,87.47
2018-12-12T05:21:38.207Z,88.54
2018-12-12T05:24:07.073Z,87.36
2018-12-12T05:26:36.009Z,87.93
2018-12-12T05:29:04.939Z,89.22
2018-12-12T05:31:33.813Z,88.90
2018-12-12T05:34:02.780Z,89.74
2018-12-12T05:36:31.702Z,90.15
2018-12-12T05:39:00.737Z,89.89
2018-12-12T05:41:31.027Z,90.00
2018-12-12T05:43:59.980Z,89.12
2018-12-12T05:46:28.902Z,89.37
2018-12-12T05:48:57.855Z,90.90
2018-12-12T05:51:26.888Z,90.71
2018-12-12T05:53:55.774Z,89.21
2018-12-12T05:56:24.722Z,90.49
2018-12-12T05:58:54.704Z,91.07
2018-12-12T06:01:23.793Z,92.03
2018-12-12T06:03:53.266Z,91.44
2018-12-12T06:06:23.000Z,91.95
2018-12-12T06:08:51.898Z,91.89
2018-12-12T06:11:20.823Z,90.96
2018-12-12T06:13:49.830Z,91.14
2018-12-12T06:16:18.770Z,92.15
2018-12-12T06:18:47.728Z,92.36
2018-12-12T06:21:16.765Z,92.62
2018-12-12T06:23:45.810Z,91.07
2018-12-12T06:26:15.510Z,91.54
2018-12-12T06:28:44.730Z,91.13
2018-12-12T06:31:13.682Z,91.46
2018-12-12T06:33:42.670Z,92.28
2018-12-12T06:36:11.626Z,91.86
2018-12-12T06:38:40.493Z,91.77
2018-12-12T06:41:09.413Z,92.85
2018-12-12T06:43:38.557Z,90.98
2018-12-12T06:46:07.496Z,91.59
2018-12-12T06:48:36.409Z,90.69
2018-12-12T06:51:05.807Z,91.84
2018-12-12T06:53:35.738Z,92.03
2018-12-12T06:56:04.698Z,92.12
2018-12-12T06:58:33.723Z,92.09
2018-12-12T07:01:02.621Z,92.28
2018-12-12T07:03:31.565Z,92.09
2018-12-12T07:06:00.689Z,92.13
2018-12-12T07:08:29.679Z,92.12
2018-12-12T07:10:58.611Z,91.48
2018-12-12T07:13:27.534Z,91.38
2018-12-12T07:15:56.594Z,92.13
2018-12-12T07:18:25.519Z,92.63
2018-12-12T07:20:54.411Z,92.14
2018-12-12T07:23:23.341Z,92.81
2018-12-12T07:25:52.320Z,91.73
2018-12-12T07:28:21.331Z,90.93
2018-12-12T07:30:50.264Z,91.40
2018-12-12T07:33:19.315Z,91.16
2018-12-12T07:35:48.838Z,91.56
2018-12-12T07:38:18.080Z,92.39
2018-12-12T07:40:47.055Z,92.62
2018-12-12T07:43:17.955Z,91.30
2018-12-12T07:46:07.623Z,91.59
2018-12-12T07:48:38.565Z,91.94
2018-12-12T07:51:13.078Z,92.19
2018-12-12T07:53:59.741Z,91.87
2018-12-12T07:56:28.657Z,91.85
2018-12-12T07:58:57.552Z,91.12
2018-12-12T08:01:26.502Z,90.80
2018-12-12T08:03:55.421Z,91.03
2018-12-12T08:06:24.968Z,90.25
2018-12-12T08:08:53.911Z,90.01
2018-12-12T08:11:22.842Z,90.21
2018-12-12T08:13:51.804Z,90.58
2018-12-12T08:16:20.935Z,91.49
2018-12-12T08:18:49.994Z,91.13
2018-12-12T08:21:19.012Z,90.85
2018-12-12T08:23:47.956Z,91.13
2018-12-12T08:26:17.127Z,91.03
2018-12-12T08:28:46.110Z,90.64
2018-12-12T08:31:15.056Z,90.06
2018-12-12T08:33:44.025Z,89.45
2018-12-12T08:36:12.937Z,88.79
2018-12-12T08:38:42.956Z,88.73
2018-12-12T08:41:12.002Z,89.91
2018-12-12T08:43:41.642Z,89.85
2018-12-12T08:46:10.711Z,89.12
2018-12-12T08:48:40.577Z,89.58
2018-12-12T08:51:10.604Z,88.96
2018-12-12T08:53:39.557Z,89.40
2018-12-12T08:56:08.502Z,89.23
2018-12-12T08:58:37.454Z,87.97
2018-12-12T09:01:06.403Z,88.29
2018-12-12T09:03:36.375Z,88.91
2018-12-12T09:06:05.334Z,89.06
2018-12-12T09:08:34.279Z,88.26
2018-12-12T09:11:03.308Z,88.66
2018-12-12T09:13:32.250Z,88.72
2018-12-12T09:16:01.839Z,87.34
2018-12-12T09:18:30.775Z,87.41
2018-12-12T09:20:59.703Z,88.51
2018-12-12T09:23:28.743Z,88.19
2018-12-12T09:25:57.707Z,89.02
2018-12-12T09:28:26.699Z,89.30
2018-12-12T09:30:57.569Z,88.57
2018-12-12T09:33:28.967Z,89.49
2018-12-12T09:36:00.791Z,88.78
2018-12-12T09:38:29.766Z,87.60
2018-12-12T09:40:58.782Z,87.70
2018-12-12T09:43:27.798Z,86.64
2018-12-12T09:45:56.723Z,88.09
2018-12-12T09:48:25.706Z,86.41
2018-12-12T09:50:54.723Z,86.49
2018-12-12T09:53:25.851Z,85.68
2018-12-12T09:55:54.875Z,86.24
2018-12-12T09:58:23.820Z,86.02
2018-12-12T10:00:52.728Z,85.72
2018-12-12T10:03:21.722Z,87.20
2018-12-12T10:05:50.625Z,87.15
2018-12-12T10:08:19.617Z,87.50
2018-12-12T10:10:49.043Z,89.77
2018-12-12T10:13:18.039Z,87.48
2018-12-12T10:15:46.954Z,87.95
2018-12-12T10:18:15.973Z,86.95
2018-12-12T10:20:44.843Z,87.07
2018-12-12T10:23:13.779Z,87.59
2018-12-12T10:25:42.743Z,86.29
2018-12-12T10:28:11.659Z,85.96
2018-12-12T10:30:40.639Z,85.16
2018-12-12T10:33:09.518Z,84.54
2018-12-12T10:35:38.449Z,84.29
2018-12-12T10:38:07.407Z,85.18
2018-12-12T10:40:36.343Z,85.75
2018-12-12T10:43:05.257Z,86.80
2018-12-12T10:45:34.183Z,86.61
2018-12-12T10:48:03.158Z,85.25
2018-12-12T10:50:32.101Z,84.84
2018-12-12T10:53:01.072Z,83.60
2018-12-12T10:55:29.996Z,82.47
2018-12-12T10:57:58.954Z,82.63
2018-12-12T11:00:28.046Z,81.99
2018-12-12T11:03:02.414Z,84.25
2018-12-12T11:05:32.526Z,84.22
2018-12-12T11:08:02.433Z,82.76
2018-12-12T11:10:31.443Z,83.56
2018-12-12T11:13:00.389Z,83.93
2018-12-12T11:15:29.279Z,85.29
2018-12-12T11:17:58.270Z,86.43
2018-12-12T11:20:27.152Z,85.56
2018-12-12T11:22:56.088Z,84.95
2018-12-12T11:25:26.002Z,86.19
2018-12-12T11:27:54.907Z,86.33
2018-12-12T11:30:23.851Z,86.72
2018-12-12T11:32:52.715Z,87.53
2018-12-12T11:35:21.693Z,87.10
2018-12-12T11:37:50.578Z,86.98
2018-12-12T11:40:19.487Z,87.58
2018-12-12T11:42:48.506Z,85.94
2018-12-12T11:45:17.418Z,84.51
2018-12-12T11:47:46.422Z,84.80
2018-12-12T11:50:15.352Z,84.98
2018-12-12T11:52:44.266Z,84.52
2018-12-12T11:55:13.220Z,84.68
2018-12-12T11:57:42.465Z,85.27
2018-12-12T12:00:11.655Z,84.18
2018-12-12T12:02:40.706Z,83.28
2018-12-12T12:05:09.610Z,83.62
2018-12-12T12:07:38.582Z,84.18
2018-12-12T12:10:09.691Z,83.19
2018-12-12T12:12:38.748Z,83.26
2018-12-12T12:15:08.474Z,83.43
2018-12-12T12:17:37.426Z,83.50
2018-12-12T12:20:06.455Z,83.33
2018-12-12T12:22:35.317Z,81.75
2018-12-12T12:25:04.360Z,81.27
2018-12-12T12:27:33.256Z,81.40
2018-12-12T12:30:08.779Z,82.76
2018-12-12T12:32:37.658Z,83.07
2018-12-12T12:35:07.310Z,82.89
2018-12-12T12:37:36.282Z,82.79
2018-12-12T12:40:06.174Z,83.23
2018-12-12T12:42:35.167Z,82.64
2018-12-12T12:45:04.251Z,82.97
2018-12-12T12:47:33.296Z,82.75
2018-12-12T12:50:02.294Z,83.20
2018-12-12T12:52:31.384Z,83.63
2018-12-12T12:55:00.391Z,83.34
2018-12-12T12:57:29.267Z,84.06
2018-12-12T12:59:58.198Z,84.99
2018-12-12T13:02:27.170Z,84.90
2018-12-12T13:04:56.166Z,86.76
2018-12-12T13:07:25.034Z,85.87
2018-12-12T13:09:53.956Z,85.04
2018-12-12T13:12:22.910Z,84.74
2018-12-12T13:14:51.870Z,85.37
2018-12-12T13:17:20.797Z,86.53
2018-12-12T13:19:49.769Z,86.51
2018-12-12T13:22:19.546Z,86.36
2018-12-12T13:24:48.546Z,86.48
2018-12-12T13:27:17.598Z,86.48
2018-12-12T13:29:46.553Z,86.08
2018-12-12T13:32:15.568Z,86.13
2018-12-12T13:34:44.473Z,85.71
2018-12-12T13:37:13.635Z,85.49
2018-12-12T13:39:42.547Z,85.46
2018-12-12T13:42:11.415Z,85.87
2018-12-12T13:44:40.522Z,85.85
2018-12-12T13:47:09.478Z,85.29
2018-12-12T13:49:38.414Z,85.35
2018-12-12T13:52:07.283Z,84.64
2018-12-12T13:54:36.181Z,85.51
2018-12-12T13:57:05.181Z,84.63
2018-12-12T13:59:34.106Z,85.62
2018-12-12T14:02:03.196Z,85.27
2018-12-12T14:04:32.044Z,84.86
2018-12-12T14:07:00.971Z,84.85
2018-12-12T14:09:31.607Z,85.57
2018-12-12T14:12:00.588Z,85.97
2018-12-12T14:14:29.451Z,86.52
2018-12-12T14:16:58.449Z,86.24
2018-12-12T14:19:27.482Z,86.04
2018-12-12T14:21:56.478Z,86.58
2018-12-12T14:24:25.430Z,86.40
2018-12-12T14:26:54.398Z,86.54
2018-12-12T14:29:23.429Z,86.43
2018-12-12T14:31:52.339Z,87.70
2018-12-12T14:34:21.477Z,88.07
2018-12-12T14:36:50.453Z,88.53
2018-12-12T14:39:19.531Z,88.71
2018-12-12T14:41:48.485Z,88.49
2018-12-12T14:44:17.414Z,88.90
2018-12-12T14:46:46.410Z,89.17
2018-12-12T14:49:15.366Z,88.89
2018-12-12T14:51:44.476Z,88.75
2018-12-12T14:54:13.375Z,88.63
2018-12-12T14:56:42.453Z,87.85
2018-12-12T14:59:11.419Z,88.37
2018-12-12T15:01:40.455Z,88.68
2018-12-12T15:04:09.367Z,89.09
2018-12-12T15:06:38.260Z,88.91
2018-12-12T15:09:08.076Z,89.52
2018-12-12T15:11:37.989Z,88.75
2018-12-12T15:14:07.029Z,87.92
2018-12-12T15:16:35.896Z,88.04
2018-12-12T15:19:04.900Z,88.14
2018-12-12T15:21:33.801Z,88.54
2018-12-12T15:24:03.630Z,89.07
2018-12-12T15:26:32.570Z,89.13
2018-12-12T15:29:05.224Z,88.36
2018-12-12T15:31:34.183Z,89.09
2018-12-12T15:34:03.415Z,90.08
2018-12-12T15:36:32.572Z,89.51
2018-12-12T15:39:01.524Z,89.09
2018-12-12T15:41:31.514Z,89.05
2018-12-12T15:44:00.427Z,89.22
2018-12-12T15:46:29.613Z,89.09
2018-12-12T15:48:58.612Z,89.09
2018-12-12T15:51:27.631Z,88.29
2018-12-12T15:53:56.582Z,88.63
2018-12-12T15:56:25.482Z,89.06
2018-12-12T15:58:54.490Z,88.68
2018-12-12T16:01:23.463Z,88.46
2018-12-12T16:03:52.511Z,88.47
2018-12-12T16:06:21.444Z,88.99
2018-12-12T16:08:50.352Z,89.55
2018-12-12T16:11:19.237Z,90.04
2018-12-12T16:13:48.184Z,90.96
2018-12-12T16:16:17.118Z,91.43
2018-12-12T16:18:46.046Z,91.71
2018-12-12T16:21:16.783Z,91.70
2018-12-12T16:23:45.713Z,91.60
2018-12-12T16:26:14.843Z,91.94
2018-12-12T16:28:43.814Z,91.71
2018-12-12T16:31:12.730Z,91.89
2018-12-12T16:33:41.672Z,91.81
2018-12-12T16:36:10.677Z,91.63
2018-12-12T16:38:39.575Z,91.29
2018-12-12T16:41:08.454Z,91.04
2018-12-12T16:43:37.386Z,90.83
2018-12-12T16:46:08.301Z,90.50
2018-12-12T16:48:37.306Z,90.09
2018-12-12T16:51:06.302Z,90.52
2018-12-12T16:53:35.332Z,90.84
2018-12-12T16:56:04.214Z,90.79
2018-12-12T16:58:33.198Z,91.04
2018-12-12T17:01:02.235Z,90.95
2018-12-12T17:03:31.204Z,91.36
2018-12-12T17:06:00.121Z,90.87
2018-12-12T17:08:29.726Z,91.11
2018-12-12T17:10:58.971Z,91.55
2018-12-12T17:13:28.047Z,91.66
2018-12-12T17:15:57.062Z,91.17
2018-12-12T17:18:26.009Z,90.69
2018-12-12T17:20:55.003Z,90.51
2018-12-12T17:23:23.935Z,90.73
2018-12-12T17:25:53.040Z,91.07
2018-12-12T17:28:21.977Z,91.60
2018-12-12T17:30:50.914Z,91.11
2018-12-12T17:33:19.869Z,91.05
2018-12-12T17:35:48.946Z,91.50
2018-12-12T17:38:17.904Z,91.30
2018-12-12T17:40:46.827Z,91.32
2018-12-12T17:43:15.950Z,91.22
2018-12-12T17:45:44.978Z,91.09
2018-12-12T17:48:13.907Z,90.97
2018-12-12T17:50:42.826Z,91.09
2018-12-12T17:53:11.800Z,91.31
2018-12-12T17:55:40.734Z,91.59
2018-12-12T17:58:09.723Z,91.54
2018-12-12T18:00:38.695Z,91.20
2018-12-12T18:03:09.593Z,91.42
2018-12-12T18:05:55.402Z,91.73
2018-12-12T18:08:24.590Z,91.43
2018-12-12T18:10:53.663Z,91.61
2018-12-12T18:13:23.011Z,91.54
2018-12-12T18:15:53.884Z,91.89
2018-12-12T18:18:24.824Z,91.47
2018-12-12T18:20:53.870Z,91.46
2018-12-12T18:23:26.787Z,91.14
2018-12-12T18:25:57.688Z,91.68
2018-12-12T18:28:26.674Z,90.83
2018-12-12T18:30:55.663Z,90.61
2018-12-12T18:33:26.592Z,89.98
2018-12-12T18:36:16.126Z,90.28
2018-12-12T18:38:45.063Z,89.98
2018-12-12T18:41:13.971Z,90.46
2018-12-12T18:43:44.953Z,89.81
2018-12-12T18:46:15.352Z,89.92
2018-12-12T18:48:44.494Z,89.50
2018-12-12T18:51:15.470Z,89.54
2018-12-12T18:53:44.520Z,89.51
2018-12-12T18:56:15.416Z,89.44
2018-12-12T18:58:44.339Z,90.45
2018-12-12T19:01:13.261Z,89.79
2018-12-12T19:03:42.169Z,89.82
2018-12-12T19:06:11.263Z,90.23
2018-12-12T19:08:40.830Z,89.55
2018-12-12T19:11:09.794Z,90.31
2018-12-12T19:13:38.738Z,89.59
2018-12-12T19:16:07.668Z,89.10
2018-12-12T19:18:37.655Z,88.74
2018-12-12T19:21:06.553Z,88.26
2018-12-12T19:23:35.621Z,88.37
2018-12-12T19:26:04.526Z,88.44
2018-12-12T19:28:33.524Z,88.36
2018-12-12T19:31:02.410Z,87.63
2018-12-12T19:33:31.354Z,89.05
2018-12-12T19:36:00.306Z,88.19
2018-12-12T19:38:29.245Z,88.64
2018-12-12T19:40:58.286Z,88.48
2018-12-12T19:43:27.149Z,89.36
2018-12-12T19:45:56.082Z,88.71
2018-12-12T19:48:25.062Z,89.14
2018-12-12T19:50:54.082Z,88.94
2018-12-12T19:53:23.042Z,89.41
2018-12-12T19:55:52.497Z,88.85
2018-12-12T19:58:22.493Z,88.63
2018-12-12T20:00:52.161Z,88.75
2018-12-12T20:03:21.166Z,88.64
2018-12-12T20:05:50.405Z,89.06
2018-12-12T20:08:19.433Z,88.82
2018-12-12T20:10:48.411Z,89.59
2018-12-12T20:13:17.395Z,89.37
2018-12-12T20:15:47.371Z,89.26
2018-12-12T20:18:16.820Z,89.34
2018-12-12T20:20:45.832Z,89.97
2018-12-12T20:23:14.725Z,90.53
2018-12-12T20:25:43.719Z,90.74
2018-12-12T20:28:12.729Z,90.36
2018-12-12T20:30:41.699Z,90.92
2018-12-12T20:33:10.571Z,90.99
2018-12-12T20:35:40.494Z,91.01
2018-12-12T20:38:12.570Z,91.32
2018-12-12T20:40:41.648Z,91.30
2018-12-12T20:43:10.734Z,91.27
2018-12-12T20:45:39.710Z,91.61
2018-12-12T20:48:08.785Z,91.97
2018-12-12T20:50:38.822Z,92.40
2018-12-12T20:53:07.751Z,92.60
2018-12-12T20:55:36.621Z,93.89
2018-12-12T20:58:05.596Z,93.22
2018-12-12T21:00:34.550Z,92.17
2018-12-12T21:03:03.567Z,91.21
2018-12-12T21:05:32.605Z,90.55
2018-12-12T21:08:01.849Z,90.12
2018-12-12T21:10:30.865Z,89.81
2018-12-12T21:12:59.798Z,89.59
2018-12-12T21:15:28.854Z,88.76
2018-12-12T21:17:57.852Z,88.98
2018-12-12T21:20:26.936Z,90.31
2018-12-12T21:22:56.704Z,90.62
2018-12-12T21:25:28.013Z,91.51
2018-12-12T21:27:57.006Z,91.06
2018-12-12T21:30:26.271Z,91.23
2018-12-12T21:32:55.542Z,91.92
2018-12-12T21:35:24.538Z,91.80
2018-12-12T21:37:53.934Z,91.90
2018-12-12T21:40:22.838Z,90.88
2018-12-12T21:42:51.830Z,90.63
2018-12-12T21:45:20.775Z,90.40
2018-12-12T21:47:49.709Z,90.98
2018-12-12T21:50:18.793Z,90.14
2018-12-12T21:52:49.114Z,90.41
2018-12-12T21:55:18.080Z,90.10
2018-12-12T21:57:46.963Z,89.66
2018-12-12T22:00:16.622Z,88.97
2018-12-12T22:02:45.598Z,90.21
2018-12-12T22:05:15.267Z,90.24
2018-12-12T22:07:44.213Z,90.02
2018-12-12T22:10:13.142Z,89.89
2018-12-12T22:12:42.219Z,89.98
2018-12-12T22:15:11.126Z,90.34
2018-12-12T22:17:40.182Z,89.62
2018-12-12T22:20:09.106Z,90.30
2018-12-12T22:22:38.091Z,89.95
2018-12-12T22:25:07.065Z,90.04
2018-12-12T22:27:36.006Z,89.77
2018-12-12T22:30:05.222Z,89.84
2018-12-12T22:32:34.113Z,89.87
2018-12-12T22:35:03.090Z,89.62
2018-12-12T22:37:31.979Z,89.80
2018-12-12T22:40:00.924Z,89.89
2018-12-12T22:42:29.818Z,89.31
2018-12-12T22:44:58.705Z,88.94
2018-12-12T22:47:27.718Z,89.47
2018-12-12T22:49:56.798Z,89.34
2018-12-12T22:52:25.875Z,89.28
2018-12-12T22:54:54.885Z,89.71
2018-12-12T22:57:23.829Z,90.02
2018-12-12T22:59:52.932Z,88.46
2018-12-12T23:02:21.871Z,88.97
2018-12-12T23:04:50.836Z,88.61
2018-12-12T23:07:19.770Z,88.79
2018-12-12T23:09:48.742Z,88.81
2018-12-12T23:12:19.659Z,88.60
2018-12-12T23:14:48.631Z,88.45
2018-12-12T23:17:17.550Z,87.93
2018-12-12T23:19:47.435Z,88.25
2018-12-12T23:22:16.437Z,88.31
2018-12-12T23:24:45.366Z,88.86
2018-12-12T23:27:14.316Z,88.60
2018-12-12T23:29:43.310Z,88.06
2018-12-12T23:32:12.307Z,86.09
2018-12-12T23:34:41.172Z,76.42
2018-12-12T23:37:10.157Z,72.77
2018-12-12T23:39:39.067Z,70.58
2018-12-12T23:42:07.961Z,76.87
2018-12-12T23:44:36.924Z,80.85
2018-12-12T23:47:05.901Z,82.44
2018-12-12T23:49:34.914Z,83.51
2018-12-12T23:52:04.330Z,83.51
2018-12-12T23:54:33.267Z,84.10
2018-12-12T23:57:02.240Z,85.03
2018-12-12T23:59:31.163Z,84.78
